Decoded Metar for CYIN ( in ) (IATA:) | Meteo·Mobile Aviation Weather
aviador You're here:

CYIN Decoded Metar

in
Report Time2019-03-21 16:00:00
UTC Time2019-03-21 16:23:07
Flight Rules vfr VFR
Wind340° at 03 kt
W.Decomp.*RWY 29: 1.9 kt HW 2.3 kt RCW
W.Rank340° ranks 14
Current wind is below 340° avg. (7.0)
Visibility9999 m
Phenomena:N/A
Clouds:N/A
Expected CloudBase > 2,000 ft AGL from Temp-Dew spread
CeilingNone
Temp02°C
Dew Point-3°C (70% RH)
AAT-1.5°C
QNH1016 hPa
Raw Report
METAR CYIN 211600Z AUTO 34003KT 9SM CLR 02/M03 A3000 RMK SLP188=

Extra information for CYIN:More info

Social comments